createdAt,value
2018-09-21T00:02:26.627Z,7.00
2018-09-21T00:04:55.684Z,7.47
2018-09-21T00:07:24.650Z,8.40
2018-09-21T00:09:53.565Z,8.27
2018-09-21T00:12:22.699Z,9.20
2018-09-21T00:14:52.002Z,8.50
2018-09-21T00:17:20.888Z,8.73
2018-09-21T00:19:50.295Z,10.23
2018-09-21T00:22:19.199Z,10.13
2018-09-21T00:24:48.611Z,9.60
2018-09-21T00:27:17.558Z,10.37
2018-09-21T00:29:46.448Z,9.97
2018-09-21T00:32:15.442Z,9.53
2018-09-21T00:34:44.851Z,10.00
2018-09-21T00:37:13.787Z,10.70
2018-09-21T00:39:42.652Z,10.43
2018-09-21T00:42:11.908Z,10.50
2018-09-21T00:44:40.979Z,10.77
2018-09-21T00:47:09.877Z,11.47
2018-09-21T00:49:39.078Z,11.00
2018-09-21T00:52:08.251Z,11.70
2018-09-21T00:54:37.295Z,12.03
2018-09-21T00:57:06.664Z,12.13
2018-09-21T00:59:35.595Z,11.13
2018-09-21T01:02:04.569Z,12.63
2018-09-21T01:04:38.691Z,11.80
2018-09-21T01:07:08.150Z,12.50
2018-09-21T01:09:37.389Z,11.10
2018-09-21T01:12:06.374Z,12.53
2018-09-21T01:14:35.855Z,11.43
2018-09-21T01:17:05.014Z,11.80
2018-09-21T01:19:33.880Z,11.97
2018-09-21T01:22:03.015Z,12.17
2018-09-21T01:24:32.171Z,12.07
2018-09-21T01:27:01.451Z,12.00
2018-09-21T01:29:30.513Z,11.93
2018-09-21T01:31:59.527Z,11.73
2018-09-21T01:34:28.739Z,11.83
2018-09-21T01:36:57.751Z,12.30
2018-09-21T01:39:26.651Z,11.60
2018-09-21T01:41:55.724Z,12.20
2018-09-21T01:44:24.900Z,12.30
2018-09-21T01:46:53.804Z,11.37
2018-09-21T01:49:23.235Z,11.90
2018-09-21T01:51:52.414Z,12.43
2018-09-21T01:54:21.393Z,11.63
2018-09-21T01:56:50.364Z,11.70
2018-09-21T01:59:19.480Z,10.37
2018-09-21T02:01:48.495Z,10.13
2018-09-21T02:04:17.667Z,10.43
2018-09-21T02:06:46.635Z,10.10
2018-09-21T02:09:15.575Z,9.60
2018-09-21T02:11:44.811Z,9.57
2018-09-21T02:14:14.114Z,9.53
2018-09-21T02:16:43.276Z,9.17
2018-09-21T02:19:12.503Z,8.80
2018-09-21T02:21:41.968Z,9.07
2018-09-21T02:24:10.983Z,9.00
2018-09-21T02:26:40.107Z,9.07
2018-09-21T02:29:09.274Z,8.83
2018-09-21T02:31:38.261Z,8.83
2018-09-21T02:34:07.540Z,8.53
2018-09-21T02:36:37.123Z,8.67
2018-09-21T02:39:08.300Z,8.17
2018-09-21T02:41:37.660Z,7.67
2018-09-21T02:44:07.014Z,8.57
2018-09-21T02:46:36.607Z,7.60
2018-09-21T02:49:05.744Z,7.93
2018-09-21T02:51:35.263Z,8.43
2018-09-21T02:54:04.456Z,8.30
2018-09-21T02:56:33.679Z,7.90
2018-09-21T02:59:02.691Z,8.13
2018-09-21T03:01:31.765Z,8.10
2018-09-21T03:04:01.136Z,8.33
2018-09-21T03:06:30.152Z,8.30
2018-09-21T03:08:59.300Z,7.87
2018-09-21T03:11:28.499Z,8.20
2018-09-21T03:13:57.780Z,9.00
2018-09-21T03:16:27.503Z,8.10
2018-09-21T03:18:56.963Z,8.40
2018-09-21T03:21:25.956Z,8.73
2018-09-21T03:23:55.439Z,8.17
2018-09-21T03:26:25.044Z,8.13
2018-09-21T03:28:54.024Z,7.77
2018-09-21T03:31:23.075Z,7.80
2018-09-21T03:33:52.139Z,7.83
2018-09-21T03:36:21.353Z,7.87
2018-09-21T03:38:50.347Z,7.87
2018-09-21T03:41:19.544Z,7.63
2018-09-21T03:43:48.524Z,7.87
2018-09-21T03:46:17.575Z,8.07
2018-09-21T03:48:46.813Z,7.90
2018-09-21T03:51:15.827Z,8.17
2018-09-21T03:53:44.845Z,7.40
2018-09-21T03:56:14.157Z,8.20
2018-09-21T03:58:43.115Z,7.37
2018-09-21T04:01:12.306Z,7.30
2018-09-21T04:03:41.393Z,7.17
2018-09-21T04:06:10.471Z,7.17
2018-09-21T04:08:39.597Z,7.00
2018-09-21T04:11:08.888Z,7.07
2018-09-21T04:13:37.907Z,6.70
2018-09-21T04:16:06.753Z,6.93
2018-09-21T04:18:35.753Z,7.17
2018-09-21T04:21:04.867Z,7.10
2018-09-21T04:23:34.104Z,7.73
2018-09-21T04:26:03.276Z,6.47
2018-09-21T04:28:37.771Z,6.67
2018-09-21T04:31:21.370Z,7.10
2018-09-21T04:33:50.920Z,6.67
2018-09-21T04:36:20.148Z,6.80
2018-09-21T04:38:49.716Z,6.13
2018-09-21T04:41:18.764Z,6.00
2018-09-21T04:43:48.002Z,5.57
2018-09-21T04:46:17.308Z,5.77
2018-09-21T04:51:21.943Z,6.07
2018-09-21T04:53:51.408Z,5.40
2018-09-21T04:56:20.479Z,5.80
2018-09-21T04:58:53.231Z,6.30
2018-09-21T05:01:22.613Z,6.10
2018-09-21T05:03:51.905Z,5.73
2018-09-21T05:06:21.421Z,5.40
2018-09-21T05:08:50.636Z,5.87
2018-09-21T05:11:20.856Z,6.00
2018-09-21T05:13:50.868Z,6.70
2018-09-21T05:16:20.305Z,6.03
2018-09-21T05:18:49.759Z,6.00
2018-09-21T05:21:18.995Z,6.00
2018-09-21T05:23:47.969Z,6.90
2018-09-21T05:26:17.069Z,6.60
2018-09-21T05:28:48.234Z,6.80
2018-09-21T05:31:17.796Z,6.47
2018-09-21T05:33:47.028Z,5.80
2018-09-21T05:36:16.047Z,6.17
2018-09-21T05:38:45.810Z,5.70
2018-09-21T05:41:15.029Z,5.37
2018-09-21T05:43:44.404Z,6.27
2018-09-21T05:46:13.476Z,6.60
2018-09-21T05:48:43.013Z,6.70
2018-09-21T05:51:12.026Z,7.40
2018-09-21T05:53:41.304Z,7.07
2018-09-21T05:56:10.828Z,6.70
2018-09-21T05:58:39.907Z,6.20
2018-09-21T06:01:09.136Z,5.97
2018-09-21T06:03:38.225Z,5.70
2018-09-21T06:06:08.085Z,6.13
2018-09-21T06:08:37.193Z,6.13
2018-09-21T06:11:06.319Z,6.73
2018-09-21T06:13:35.315Z,6.35
2018-09-21T06:16:04.402Z,5.53
2018-09-21T06:18:33.619Z,6.23
2018-09-21T06:21:02.874Z,5.50
2018-09-21T06:23:31.925Z,5.27
2018-09-21T06:26:01.471Z,5.70
2018-09-21T06:28:30.460Z,5.30
2018-09-21T06:30:59.617Z,5.90
2018-09-21T06:33:28.974Z,5.13
2018-09-21T06:35:58.096Z,5.10
2018-09-21T06:38:28.285Z,5.43
2018-09-21T06:40:57.878Z,5.00
2018-09-21T06:43:27.656Z,4.67
2018-09-21T06:45:57.536Z,4.60
2018-09-21T06:48:26.803Z,4.37
2018-09-21T06:50:55.871Z,3.80
2018-09-21T06:53:24.993Z,4.20
2018-09-21T06:55:54.565Z,4.67
2018-09-21T06:58:23.566Z,3.87
2018-09-21T07:00:52.568Z,4.73
2018-09-21T07:03:21.788Z,4.73
2018-09-21T07:05:50.987Z,5.30
2018-09-21T07:08:19.972Z,4.50
2018-09-21T07:10:49.148Z,4.47
2018-09-21T07:13:18.256Z,4.70
2018-09-21T07:15:47.284Z,4.40
2018-09-21T07:18:16.601Z,4.43
2018-09-21T07:20:46.580Z,4.57
2018-09-21T07:23:15.627Z,4.43
2018-09-21T07:25:45.220Z,4.93
2018-09-21T07:28:14.388Z,4.90
2018-09-21T07:30:43.608Z,5.20
2018-09-21T07:33:12.856Z,5.00
2018-09-21T07:35:41.910Z,5.97
2018-09-21T07:38:10.869Z,5.60
2018-09-21T07:40:40.455Z,5.90
2018-09-21T07:43:09.679Z,4.93
2018-09-21T07:45:40.232Z,5.50
2018-09-21T07:48:10.295Z,5.53
2018-09-21T07:50:39.486Z,5.73
2018-09-21T07:53:08.450Z,5.10
2018-09-21T07:55:37.717Z,5.60
2018-09-21T08:01:00.133Z,5.20
2018-09-21T08:03:29.319Z,5.40
2018-09-21T08:05:58.483Z,5.43
2018-09-21T08:08:28.555Z,5.20
2018-09-21T08:10:57.511Z,6.10
2018-09-21T08:13:26.649Z,5.27
2018-09-21T08:15:55.794Z,5.80
2018-09-21T08:18:26.122Z,5.83
2018-09-21T08:20:55.428Z,5.90
2018-09-21T08:23:24.604Z,5.77
2018-09-21T08:25:53.586Z,5.97
2018-09-21T08:28:22.676Z,5.67
2018-09-21T08:30:51.987Z,6.53
2018-09-21T08:33:21.160Z,6.27
2018-09-21T08:35:50.132Z,5.83
2018-09-21T08:38:19.540Z,5.63
2018-09-21T08:40:48.618Z,4.83
2018-09-21T08:43:17.674Z,4.80
2018-09-21T08:45:47.480Z,5.30
2018-09-21T08:48:16.721Z,4.60
2018-09-21T08:50:45.732Z,4.80
2018-09-21T08:53:15.027Z,4.83
2018-09-21T08:55:44.039Z,4.90
2018-09-21T08:58:13.235Z,4.30
2018-09-21T09:00:42.654Z,4.60
2018-09-21T09:03:11.738Z,4.37
2018-09-21T09:05:41.164Z,4.70
2018-09-21T09:08:10.743Z,4.33
2018-09-21T09:10:40.099Z,4.57
2018-09-21T09:13:09.269Z,4.07
2018-09-21T09:15:38.644Z,4.73
2018-09-21T09:18:07.615Z,4.57
2018-09-21T09:20:36.652Z,4.13
2018-09-21T09:23:05.855Z,4.50
2018-09-21T09:25:34.831Z,4.63
2018-09-21T11:57:08.023Z,8.53
2018-09-21T11:59:37.317Z,7.50
2018-09-21T12:02:07.333Z,7.60
2018-09-21T12:04:36.920Z,8.87
2018-09-21T12:07:06.788Z,8.13
2018-09-21T12:09:38.089Z,7.60
2018-09-21T12:12:07.201Z,8.00
2018-09-21T12:27:56.711Z,6.63
2018-09-21T12:30:25.747Z,7.10
2018-09-21T12:32:55.011Z,6.30
2018-09-21T12:35:24.273Z,6.93
2018-09-21T12:37:53.409Z,5.73
2018-09-21T12:40:22.328Z,7.23
2018-09-21T12:42:51.343Z,6.27
2018-09-21T12:45:20.231Z,5.20
2018-09-21T12:47:49.173Z,5.37
2018-09-21T12:50:18.248Z,4.40
2018-09-21T12:52:47.121Z,3.97
2018-09-21T12:55:16.203Z,3.43
2018-09-21T12:57:45.677Z,3.17
2018-09-21T13:00:14.559Z,3.00
2018-09-21T13:02:43.478Z,3.10
2018-09-21T13:05:12.500Z,3.37
2018-09-21T13:07:41.348Z,3.73
2018-09-21T13:10:10.229Z,3.50
2018-09-21T13:12:39.199Z,3.97
2018-09-21T13:15:08.067Z,3.30
2018-09-21T13:17:36.939Z,3.80
2018-09-21T13:20:06.287Z,3.40
2018-09-21T13:22:35.199Z,3.67
2018-09-21T13:25:04.127Z,4.20
2018-09-21T13:27:33.211Z,3.53
2018-09-21T13:30:02.143Z,3.00
2018-09-21T13:32:31.126Z,3.50
2018-09-21T13:35:00.086Z,3.40
2018-09-21T13:37:29.080Z,3.00
2018-09-21T13:39:57.966Z,3.80
2018-09-21T13:42:26.908Z,3.03
2018-09-21T13:44:55.799Z,3.23
2018-09-21T13:47:24.699Z,2.70
2018-09-21T13:49:53.916Z,2.50
2018-09-21T13:52:22.819Z,2.33
2018-09-21T13:54:51.695Z,1.93
2018-09-21T13:57:20.807Z,1.87
2018-09-21T13:59:49.891Z,2.30
2018-09-21T14:02:18.746Z,2.80
2018-09-21T14:04:47.750Z,2.17
2018-09-21T14:07:16.583Z,2.60
2018-09-21T14:09:45.488Z,3.20
2018-09-21T14:12:14.522Z,2.50
2018-09-21T14:14:43.357Z,2.50
2018-09-21T14:17:12.404Z,2.40
2018-09-21T14:19:41.478Z,2.80
2018-09-21T14:22:10.366Z,1.93
2018-09-21T14:24:39.263Z,2.17
2018-09-21T14:27:08.260Z,1.10
2018-09-21T14:29:37.179Z,1.23
2018-09-21T14:32:06.026Z,1.60
2018-09-21T14:34:35.203Z,1.33
2018-09-21T14:37:04.203Z,1.30
2018-09-21T14:39:33.092Z,1.50
2018-09-21T14:42:02.191Z,1.10
2018-09-21T14:44:31.052Z,1.40
2018-09-21T14:46:59.959Z,1.07
2018-09-21T14:49:28.994Z,1.00
2018-09-21T14:51:57.906Z,1.50
2018-09-21T14:54:26.796Z,0.83
2018-09-21T14:56:56.141Z,1.10
2018-09-21T14:59:25.039Z,0.77
2018-09-21T15:01:54.937Z,0.67
2018-09-21T15:04:24.054Z,1.07
2018-09-21T15:06:52.920Z,1.00
2018-09-21T15:09:21.818Z,1.03
2018-09-21T15:11:51.219Z,0.70
2018-09-21T15:14:20.126Z,0.83
2018-09-21T15:16:49.051Z,1.30
2018-09-21T15:19:18.095Z,0.90
2018-09-21T15:21:46.931Z,0.90
2018-09-21T15:24:15.811Z,0.77
2018-09-21T15:26:45.135Z,1.13
2018-09-21T15:29:13.947Z,0.93
2018-09-21T15:31:42.787Z,1.27
2018-09-21T15:34:12.151Z,1.20
2018-09-21T15:36:41.005Z,1.23
2018-09-21T15:39:11.671Z,1.20
2018-09-21T15:41:41.336Z,0.70
2018-09-21T15:44:10.412Z,0.77
2018-09-21T15:46:39.368Z,1.00
2018-09-21T15:49:08.459Z,0.77
2018-09-21T15:51:37.584Z,1.00
2018-09-21T15:54:06.459Z,1.00
2018-09-21T15:56:35.412Z,0.83
2018-09-21T15:59:05.428Z,1.13
2018-09-21T16:01:34.361Z,1.20
2018-09-21T16:04:03.585Z,0.60
2018-09-21T16:06:34.271Z,1.00
2018-09-21T16:09:05.739Z,1.20
2018-09-21T16:11:34.863Z,1.00
2018-09-21T16:14:04.059Z,1.13
2018-09-21T16:16:33.047Z,1.10
2018-09-21T16:19:02.231Z,1.50
2018-09-21T16:21:31.131Z,1.10
2018-09-21T16:24:00.127Z,1.17
2018-09-21T16:26:29.268Z,1.23
2018-09-21T16:28:58.268Z,1.40
2018-09-21T16:31:28.324Z,1.20
2018-09-21T16:33:57.651Z,1.47
2018-09-21T16:36:26.749Z,1.57
2018-09-21T16:38:56.253Z,1.93
2018-09-21T16:41:25.533Z,1.20
2018-09-21T16:43:55.694Z,1.50
2018-09-21T16:46:24.856Z,1.37
2018-09-21T16:48:54.261Z,2.00
2018-09-21T16:51:23.615Z,1.77
2018-09-21T16:53:52.640Z,1.90
2018-09-21T16:56:21.785Z,1.60
2018-09-21T16:58:50.904Z,1.70
2018-09-21T17:01:20.339Z,1.37
2018-09-21T17:03:49.395Z,1.73
2018-09-21T17:06:19.468Z,1.57
2018-09-21T17:08:48.557Z,1.50
2018-09-21T17:11:17.826Z,1.70
2018-09-21T17:13:46.713Z,1.50
2018-09-21T17:16:15.617Z,1.80
2018-09-21T17:18:44.926Z,1.50
2018-09-21T17:21:13.983Z,1.53
2018-09-21T17:23:43.240Z,1.40
2018-09-21T17:26:12.418Z,1.53
2018-09-21T17:28:41.472Z,1.73
2018-09-21T17:31:10.457Z,1.20
2018-09-21T17:33:39.626Z,1.37
2018-09-21T17:36:08.932Z,1.40
2018-09-21T17:38:38.152Z,1.13
2018-09-21T17:41:07.211Z,1.80
2018-09-21T17:43:36.167Z,2.03
2018-09-21T17:46:05.392Z,2.37
2018-09-21T17:48:34.607Z,1.53
2018-09-21T17:51:03.623Z,1.60
2018-09-21T17:53:32.657Z,1.40
2018-09-21T17:56:01.934Z,1.60
2018-09-21T17:58:31.068Z,1.77
2018-09-21T18:01:00.064Z,1.50
2018-09-21T18:03:29.116Z,1.93
2018-09-21T18:05:58.226Z,1.50
2018-09-21T18:08:32.188Z,1.93
2018-09-21T18:11:01.832Z,2.17
2018-09-21T18:13:30.842Z,2.07
2018-09-21T18:15:59.979Z,2.23
2018-09-21T18:18:28.903Z,2.43
2018-09-21T18:20:57.964Z,1.67
2018-09-21T18:23:27.148Z,1.87
2018-09-21T18:25:57.017Z,1.77
2018-09-21T18:28:26.039Z,1.40
2018-09-21T18:30:55.501Z,1.80
2018-09-21T18:33:25.454Z,2.30
2018-09-21T18:35:54.564Z,2.37
2018-09-21T18:38:23.675Z,2.60
2018-09-21T18:40:52.914Z,2.27
2018-09-21T18:43:21.812Z,2.60
2018-09-21T18:45:51.461Z,2.37
2018-09-21T18:48:21.180Z,2.10
2018-09-21T18:50:50.529Z,2.37
2018-09-21T18:53:19.671Z,2.40
2018-09-21T18:55:48.876Z,2.00
2018-09-21T18:58:17.844Z,2.43
2018-09-21T19:00:47.156Z,2.40
2018-09-21T19:03:16.318Z,2.23
2018-09-21T19:05:45.320Z,2.53
2018-09-21T19:08:14.683Z,1.23
2018-09-21T19:10:43.676Z,2.27
2018-09-21T19:13:12.646Z,2.20
2018-09-21T19:15:41.836Z,1.40
2018-09-21T19:18:10.884Z,1.27
2018-09-21T19:20:39.829Z,1.80
2018-09-21T19:23:08.795Z,1.30
2018-09-21T19:25:37.790Z,1.40
2018-09-21T19:28:06.998Z,1.50
2018-09-21T19:30:36.165Z,1.67
2018-09-21T19:33:05.238Z,1.63
2018-09-21T19:35:34.267Z,1.77
2018-09-21T19:38:03.251Z,1.33
2018-09-21T19:40:32.160Z,1.47
2018-09-21T19:43:01.325Z,0.83
2018-09-21T19:45:30.612Z,1.03
2018-09-21T19:47:59.536Z,0.87
2018-09-21T19:50:28.584Z,1.27
2018-09-21T19:52:57.719Z,1.20
2018-09-21T19:55:26.814Z,0.90
2018-09-21T19:57:55.750Z,1.10
2018-09-21T20:00:24.899Z,1.17
2018-09-21T20:02:53.836Z,1.20
2018-09-21T20:05:22.768Z,1.00
2018-09-21T20:07:52.011Z,1.10
2018-09-21T20:10:20.988Z,1.33
2018-09-21T20:12:50.939Z,1.10
2018-09-21T20:15:20.096Z,1.03
2018-09-21T20:17:49.279Z,1.40
2018-09-21T20:20:18.179Z,1.93
2018-09-21T20:22:47.263Z,1.20
2018-09-21T20:25:16.204Z,1.40
2018-09-21T20:27:51.699Z,1.37
2018-09-21T20:30:25.760Z,1.87
2018-09-21T20:33:00.091Z,1.60
2018-09-21T20:35:29.284Z,1.40
2018-09-21T20:37:58.256Z,1.47
2018-09-21T20:40:27.186Z,1.57
2018-09-21T20:42:56.383Z,1.93
2018-09-21T20:45:25.472Z,2.10
2018-09-21T20:47:54.437Z,1.50
2018-09-21T20:50:23.859Z,1.70
2018-09-21T20:52:52.864Z,1.90
2018-09-21T20:55:21.915Z,1.77
2018-09-21T20:57:50.976Z,1.87
2018-09-21T21:00:19.879Z,1.23
2018-09-21T21:02:48.800Z,1.77
2018-09-21T21:05:18.299Z,2.20
2018-09-21T21:07:47.382Z,1.63
2018-09-21T21:10:16.307Z,1.40
2018-09-21T21:12:45.440Z,1.90
2018-09-21T21:15:14.494Z,2.17
2018-09-21T21:17:43.379Z,2.17
2018-09-21T21:20:12.511Z,2.00
2018-09-21T21:22:41.596Z,2.13
2018-09-21T21:25:10.716Z,2.30
2018-09-21T21:27:39.779Z,1.70
2018-09-21T21:30:08.811Z,1.63
2018-09-21T21:32:37.763Z,1.57
2018-09-21T21:35:06.900Z,1.40
2018-09-21T21:37:35.800Z,1.60
2018-09-21T21:40:04.995Z,1.63
2018-09-21T21:42:34.176Z,2.03
2018-09-21T21:45:03.235Z,1.30
2018-09-21T21:47:32.460Z,1.47
2018-09-21T21:50:01.680Z,1.57
2018-09-21T21:52:30.768Z,1.17
2018-09-21T21:54:59.654Z,1.60
2018-09-21T21:57:28.764Z,1.60
2018-09-21T21:59:57.876Z,1.30
2018-09-21T22:02:27.053Z,1.20
2018-09-21T22:04:56.189Z,1.10
2018-09-21T22:07:25.077Z,0.93
2018-09-21T22:09:53.960Z,1.33
2018-09-21T22:12:27.935Z,1.33
2018-09-21T22:14:57.127Z,1.30
2018-09-21T22:17:26.215Z,0.80
2018-09-21T22:19:55.083Z,1.10
2018-09-21T22:22:24.099Z,0.97
2018-09-21T22:24:52.980Z,0.80
2018-09-21T22:27:21.939Z,1.43
2018-09-21T22:29:51.027Z,1.20
2018-09-21T22:32:19.959Z,1.03
2018-09-21T22:34:48.969Z,1.17
2018-09-21T22:37:18.428Z,1.20
2018-09-21T22:39:47.380Z,1.63
2018-09-21T22:42:16.294Z,1.70
2018-09-21T22:44:46.360Z,1.80
2018-09-21T22:47:15.380Z,2.27
2018-09-21T22:49:44.334Z,1.70
2018-09-21T22:52:13.579Z,2.03
2018-09-21T22:54:42.511Z,1.93
2018-09-21T22:57:11.567Z,3.17
2018-09-21T22:59:40.755Z,2.13
2018-09-21T23:02:09.704Z,2.17
2018-09-21T23:04:38.811Z,2.30
2018-09-21T23:07:08.231Z,1.97
2018-09-21T23:09:37.364Z,2.67
2018-09-21T23:12:06.300Z,2.73
2018-09-21T23:14:35.383Z,2.80
2018-09-21T23:17:04.482Z,2.30
2018-09-21T23:19:33.495Z,2.00
2018-09-21T23:22:02.983Z,2.17
2018-09-21T23:24:31.971Z,1.93
2018-09-21T23:27:00.958Z,1.70
2018-09-21T23:29:30.320Z,2.43
2018-09-21T23:31:59.274Z,1.83
2018-09-21T23:34:28.239Z,1.70
2018-09-21T23:36:57.354Z,2.17
2018-09-21T23:39:26.556Z,1.30
2018-09-21T23:41:55.476Z,1.63
2018-09-21T23:44:24.505Z,1.63
2018-09-21T23:46:53.493Z,1.90
2018-09-21T23:49:22.507Z,2.10
2018-09-21T23:51:51.518Z,2.43
2018-09-21T23:54:20.394Z,1.90
2018-09-21T23:56:49.416Z,2.53
2018-09-21T23:59:18.371Z,2.33
